createdAt,value
2023-04-26T00:02:11.697Z,43.40
2023-04-26T00:04:38.207Z,43.60
2023-04-26T00:07:04.799Z,43.90
2023-04-26T00:09:31.222Z,43.90
2023-04-26T00:11:57.826Z,43.70
2023-04-26T00:14:24.252Z,43.50
2023-04-26T00:16:50.773Z,44.60
2023-04-26T00:19:17.212Z,44.30
2023-04-26T00:21:43.663Z,43.90
2023-04-26T00:24:10.148Z,43.90
2023-04-26T00:26:36.614Z,43.30
2023-04-26T00:29:03.074Z,43.60
2023-04-26T00:31:29.541Z,43.50
2023-04-26T00:33:55.981Z,43.50
2023-04-26T00:36:22.445Z,43.40
2023-04-26T00:38:48.878Z,43.20
2023-04-26T00:41:15.362Z,44.30
2023-04-26T00:43:41.789Z,43.70
2023-04-26T00:46:08.232Z,43.30
2023-04-26T00:48:34.714Z,43.40
2023-04-26T00:51:01.128Z,43.30
2023-04-26T00:53:27.614Z,43.40
2023-04-26T00:55:54.096Z,43.90
2023-04-26T00:58:20.558Z,43.10
2023-04-26T01:00:47.067Z,43.20
2023-04-26T01:03:13.730Z,43.40
2023-04-26T01:05:40.274Z,43.40
2023-04-26T01:08:06.724Z,43.40
2023-04-26T01:10:33.170Z,43.40
2023-04-26T01:12:59.579Z,43.40
2023-04-26T01:15:26.059Z,43.50
2023-04-26T01:17:52.597Z,43.30
2023-04-26T01:20:19.053Z,43.50
2023-04-26T01:22:45.524Z,43.60
2023-04-26T01:25:12.025Z,43.90
2023-04-26T01:27:38.504Z,43.50
2023-04-26T01:30:05.026Z,43.90
2023-04-26T01:32:31.544Z,43.50
2023-04-26T01:34:58.001Z,44.00
2023-04-26T01:37:24.446Z,43.50
2023-04-26T01:39:50.930Z,43.90
2023-04-26T01:42:17.448Z,43.40
2023-04-26T01:44:43.892Z,43.80
2023-04-26T01:47:10.401Z,43.20
2023-04-26T01:49:36.870Z,43.80
2023-04-26T01:52:03.330Z,43.40
2023-04-26T01:54:29.748Z,43.20
2023-04-26T01:56:56.199Z,43.00
2023-04-26T01:59:22.700Z,43.60
2023-04-26T02:01:49.174Z,43.20
2023-04-26T02:04:15.726Z,43.60
2023-04-26T02:06:42.189Z,43.30
2023-04-26T02:09:08.713Z,43.60
2023-04-26T02:11:35.206Z,43.60
2023-04-26T02:14:01.731Z,43.50
2023-04-26T02:16:28.252Z,43.20
2023-04-26T02:18:54.947Z,43.30
2023-04-26T02:21:21.712Z,42.90
2023-04-26T02:23:48.162Z,43.10
2023-04-26T02:26:14.640Z,43.50
2023-04-26T02:28:41.113Z,43.10
2023-04-26T02:31:07.694Z,43.20
2023-04-26T02:33:34.208Z,43.60
2023-04-26T02:36:00.678Z,43.10
2023-04-26T02:38:27.112Z,43.40
2023-04-26T02:40:53.586Z,43.00
2023-04-26T02:43:20.081Z,43.00
2023-04-26T02:45:46.576Z,42.90
2023-04-26T02:48:13.126Z,43.40
2023-04-26T02:50:39.584Z,43.40
2023-04-26T02:53:06.013Z,42.90
2023-04-26T02:55:32.465Z,43.00
2023-04-26T02:57:58.973Z,43.40
2023-04-26T03:00:25.455Z,43.00
2023-04-26T03:02:52.147Z,43.10
2023-04-26T03:05:18.787Z,42.90
2023-04-26T03:07:45.241Z,43.30
2023-04-26T03:10:11.693Z,42.70
2023-04-26T03:12:38.120Z,42.90
2023-04-26T03:15:04.611Z,42.80
2023-04-26T03:17:31.101Z,42.70
2023-04-26T03:19:58.144Z,43.10
2023-04-26T03:22:25.274Z,42.90
2023-04-26T03:24:51.728Z,42.90
2023-04-26T03:27:18.207Z,43.30
2023-04-26T03:29:44.660Z,43.00
2023-04-26T03:32:11.290Z,42.60
2023-04-26T03:34:37.995Z,43.20
2023-04-26T03:37:04.494Z,42.80
2023-04-26T03:39:30.985Z,42.90
2023-04-26T03:41:57.427Z,42.60
2023-04-26T03:44:23.887Z,42.60
2023-04-26T03:46:52.288Z,42.50
2023-04-26T03:49:18.783Z,42.90
2023-04-26T03:51:45.313Z,42.60
2023-04-26T03:54:11.775Z,43.10
2023-04-26T03:56:38.276Z,42.40
2023-04-26T03:59:04.759Z,42.60
2023-04-26T04:01:31.244Z,42.50
2023-04-26T04:03:58.114Z,42.50
2023-04-26T04:06:24.680Z,43.10
2023-04-26T04:08:51.343Z,42.40
2023-04-26T04:11:18.013Z,42.50
2023-04-26T04:13:44.513Z,43.00
2023-04-26T04:16:11.010Z,42.60
2023-04-26T04:18:37.590Z,43.00
2023-04-26T04:21:04.095Z,42.60
2023-04-26T04:23:30.591Z,43.00
2023-04-26T04:25:57.104Z,43.00
2023-04-26T04:28:23.590Z,43.10
2023-04-26T04:33:17.121Z,42.60
2023-04-26T04:35:43.615Z,43.20
2023-04-26T04:38:10.081Z,43.40
2023-04-26T04:40:36.592Z,43.20
2023-04-26T04:43:03.097Z,42.70
2023-04-26T04:45:29.601Z,43.10
2023-04-26T04:47:56.192Z,43.20
2023-04-26T04:50:22.792Z,42.70
2023-04-26T04:52:49.269Z,42.80
2023-04-26T04:55:15.754Z,42.80
2023-04-26T04:57:43.085Z,43.10
2023-04-26T05:00:09.759Z,43.10
2023-04-26T05:02:36.355Z,42.70
2023-04-26T05:05:03.042Z,42.40
2023-04-26T05:07:29.776Z,42.40
2023-04-26T05:09:56.309Z,42.90
2023-04-26T05:12:22.838Z,42.40
2023-04-26T05:14:49.304Z,42.90
2023-04-26T05:17:15.823Z,42.80
2023-04-26T05:19:42.277Z,42.80
2023-04-26T05:22:08.728Z,42.00
2023-04-26T05:24:35.251Z,42.70
2023-04-26T05:27:01.755Z,42.30
2023-04-26T05:29:28.269Z,42.20
2023-04-26T05:31:54.778Z,42.20
2023-04-26T05:34:21.319Z,42.50
2023-04-26T05:36:47.798Z,42.10
2023-04-26T05:39:14.270Z,42.20
2023-04-26T05:41:40.770Z,42.20
2023-04-26T05:44:07.216Z,42.30
2023-04-26T05:49:00.808Z,42.20
2023-04-26T05:51:27.290Z,42.10
2023-04-26T05:53:53.958Z,42.50
2023-04-26T05:56:20.648Z,42.20
2023-04-26T05:58:47.108Z,42.60
2023-04-26T06:01:13.576Z,42.20
2023-04-26T06:03:40.235Z,42.10
2023-04-26T06:06:06.868Z,42.70
2023-04-26T06:08:33.353Z,42.30
2023-04-26T06:10:59.856Z,41.40
2023-04-26T06:13:26.307Z,42.30
2023-04-26T06:15:52.758Z,42.20
2023-04-26T06:18:19.217Z,42.70
2023-04-26T06:20:45.718Z,42.70
2023-04-26T06:23:12.229Z,41.90
2023-04-26T06:25:38.718Z,42.40
2023-04-26T06:28:05.189Z,42.20
2023-04-26T06:30:31.722Z,42.20
2023-04-26T06:32:58.248Z,42.60
2023-04-26T06:35:24.763Z,42.00
2023-04-26T06:37:51.254Z,42.80
2023-04-26T06:40:17.713Z,42.20
2023-04-26T06:42:44.169Z,42.00
2023-04-26T06:45:10.685Z,42.80
2023-04-26T06:47:37.199Z,42.30
2023-04-26T06:50:03.700Z,42.40
2023-04-26T06:52:30.217Z,42.30
2023-04-26T06:54:57.703Z,42.70
2023-04-26T06:57:24.418Z,42.40
2023-04-26T06:59:50.945Z,42.70
2023-04-26T07:02:17.501Z,42.60
2023-04-26T07:04:44.214Z,42.50
2023-04-26T07:07:12.996Z,42.80
2023-04-26T07:09:40.194Z,42.40
2023-04-26T07:12:06.994Z,42.50
2023-04-26T07:14:33.487Z,42.00
2023-04-26T07:16:59.996Z,42.40
2023-04-26T07:19:26.456Z,42.40
2023-04-26T07:21:53.049Z,42.30
2023-04-26T07:24:19.593Z,42.20
2023-04-26T07:29:13.100Z,42.50
2023-04-26T07:31:39.617Z,42.90
2023-04-26T07:34:06.097Z,42.10
2023-04-26T07:36:32.548Z,42.80
2023-04-26T07:38:59.035Z,42.70
2023-04-26T07:41:25.551Z,42.40
2023-04-26T07:43:52.226Z,42.40
2023-04-26T07:46:19.025Z,42.40
2023-04-26T07:48:45.677Z,42.60
2023-04-26T07:51:12.168Z,42.40
2023-04-26T07:53:38.663Z,42.30
2023-04-26T07:58:32.180Z,42.30
2023-04-26T08:00:58.646Z,42.40
2023-04-26T08:03:25.376Z,42.20
2023-04-26T08:08:19.085Z,42.90
2023-04-26T08:10:45.851Z,42.90
2023-04-26T08:13:12.406Z,42.30
2023-04-26T08:15:38.858Z,42.30
2023-04-26T08:18:05.426Z,42.60
2023-04-26T08:20:31.994Z,43.00
2023-04-26T08:22:58.507Z,42.90
2023-04-26T08:25:24.978Z,42.00
2023-04-26T08:27:51.449Z,42.50
2023-04-26T08:30:17.934Z,42.60
2023-04-26T08:32:44.418Z,42.30
2023-04-26T08:35:10.952Z,42.20
2023-04-26T08:37:37.491Z,42.90
2023-04-26T08:40:03.989Z,43.10
2023-04-26T08:42:30.445Z,42.80
2023-04-26T08:44:56.913Z,42.70
2023-04-26T08:47:23.487Z,42.70
2023-04-26T08:49:49.984Z,41.90
2023-04-26T08:52:16.456Z,42.70
2023-04-26T08:54:42.952Z,43.00
2023-04-26T08:57:09.474Z,42.90
2023-04-26T09:02:03.139Z,42.00
2023-04-26T09:04:30.172Z,42.70
2023-04-26T09:06:56.849Z,42.10
2023-04-26T09:09:23.371Z,42.30
2023-04-26T09:11:49.875Z,43.00
2023-04-26T09:14:16.393Z,42.70
2023-04-26T09:16:43.021Z,42.70
2023-04-26T09:19:09.547Z,43.00
2023-04-26T09:21:36.097Z,42.90
2023-04-26T09:24:02.652Z,43.10
2023-04-26T09:26:29.157Z,42.40
2023-04-26T09:28:55.692Z,42.30
2023-04-26T09:31:22.271Z,42.40
2023-04-26T09:33:48.825Z,42.80
2023-04-26T09:36:15.337Z,43.10
2023-04-26T09:38:41.805Z,42.70
2023-04-26T09:41:08.312Z,42.00
2023-04-26T09:43:35.899Z,42.70
2023-04-26T09:46:02.464Z,42.80
2023-04-26T09:48:29.002Z,42.80
2023-04-26T09:50:55.468Z,42.30
2023-04-26T09:53:21.952Z,42.20
2023-04-26T09:58:15.516Z,42.00
2023-04-26T10:00:42.071Z,42.80
2023-04-26T10:03:08.797Z,43.10
2023-04-26T10:05:35.392Z,42.70
2023-04-26T10:08:01.894Z,41.80
2023-04-26T10:10:28.360Z,42.70
2023-04-26T10:12:54.847Z,42.40
2023-04-26T10:17:50.235Z,42.70
2023-04-26T10:20:18.460Z,43.00
2023-04-26T10:22:44.920Z,42.40
2023-04-26T10:25:11.459Z,42.20
2023-04-26T10:27:37.930Z,42.30
2023-04-26T10:30:04.431Z,42.70
2023-04-26T10:32:30.921Z,42.70
2023-04-26T10:34:57.439Z,42.60
2023-04-26T10:37:23.944Z,42.50
2023-04-26T10:39:50.406Z,42.20
2023-04-26T10:42:16.940Z,42.50
2023-04-26T10:44:43.462Z,42.30
2023-04-26T10:47:10.003Z,43.00
2023-04-26T10:49:36.509Z,43.10
2023-04-26T10:52:03.063Z,43.10
2023-04-26T10:54:29.532Z,42.60
2023-04-26T10:56:56.015Z,42.50
2023-04-26T10:59:39.748Z,42.60
2023-04-26T11:02:06.645Z,42.50
2023-04-26T11:04:33.129Z,43.10
2023-04-26T11:06:59.678Z,43.10
2023-04-26T11:09:26.144Z,43.00
2023-04-26T11:11:52.670Z,42.60
2023-04-26T11:14:19.189Z,42.90
2023-04-26T11:16:45.808Z,43.30
2023-04-26T11:19:12.312Z,43.40
2023-04-26T11:21:38.816Z,43.40
2023-04-26T11:24:05.282Z,43.10
2023-04-26T11:26:31.760Z,43.20
2023-04-26T11:28:58.260Z,43.40
2023-04-26T11:31:24.792Z,43.50
2023-04-26T11:33:51.293Z,42.70
2023-04-26T11:36:17.803Z,43.40
2023-04-26T11:38:44.356Z,43.40
2023-04-26T11:41:10.816Z,43.00
2023-04-26T11:43:37.640Z,43.50
2023-04-26T11:46:04.283Z,42.90
2023-04-26T11:48:30.817Z,42.90
2023-04-26T11:50:57.312Z,43.10
2023-04-26T11:53:23.804Z,43.40
2023-04-26T11:55:50.311Z,42.70
2023-04-26T11:58:16.772Z,42.90
2023-04-26T12:00:43.292Z,42.80
2023-04-26T12:03:09.865Z,43.10
2023-04-26T12:05:36.677Z,42.80
2023-04-26T12:08:03.310Z,42.70
2023-04-26T12:10:29.783Z,43.30
2023-04-26T12:12:56.263Z,43.00
2023-04-26T12:15:22.711Z,43.20
2023-04-26T12:17:49.216Z,42.70
2023-04-26T12:20:15.737Z,43.00
2023-04-26T12:22:42.243Z,42.90
2023-04-26T12:25:08.872Z,42.60
2023-04-26T12:27:35.408Z,42.70
2023-04-26T12:30:01.908Z,42.80
2023-04-26T12:32:28.471Z,42.90
2023-04-26T12:34:54.961Z,43.20
2023-04-26T12:37:21.489Z,42.80
2023-04-26T12:39:47.963Z,42.90
2023-04-26T12:42:14.428Z,42.90
2023-04-26T12:44:40.943Z,42.70
2023-04-26T12:47:07.408Z,42.70
2023-04-26T12:49:33.961Z,43.20
2023-04-26T12:52:00.536Z,42.50
2023-04-26T12:54:27.013Z,42.60
2023-04-26T12:56:53.504Z,43.20
2023-04-26T12:59:19.981Z,42.90
2023-04-26T13:01:46.536Z,42.50
2023-04-26T13:04:13.260Z,43.00
2023-04-26T13:06:39.998Z,42.50
2023-04-26T13:09:06.497Z,42.80
2023-04-26T13:11:33.034Z,42.70
2023-04-26T13:13:59.635Z,42.40
2023-04-26T13:16:26.189Z,43.10
2023-04-26T13:18:52.810Z,43.10
2023-04-26T13:21:19.331Z,42.70
2023-04-26T13:23:45.821Z,42.30
2023-04-26T13:26:12.332Z,42.50
2023-04-26T13:28:38.865Z,43.00
2023-04-26T13:31:05.392Z,42.50
2023-04-26T13:35:59.019Z,42.40
2023-04-26T13:38:26.702Z,42.20
2023-04-26T13:40:53.444Z,42.40
2023-04-26T13:43:19.956Z,43.00
2023-04-26T13:45:46.592Z,42.60
2023-04-26T13:48:13.374Z,42.50
2023-04-26T13:50:40.040Z,42.70
2023-04-26T13:53:06.506Z,42.40
2023-04-26T13:55:33.005Z,42.40
2023-04-26T13:57:59.513Z,42.70
2023-04-26T14:00:25.994Z,43.00
2023-04-26T14:02:52.763Z,42.50
2023-04-26T14:05:19.561Z,42.30
2023-04-26T14:07:46.119Z,43.00
2023-04-26T14:10:12.640Z,42.60
2023-04-26T14:12:39.146Z,42.40
2023-04-26T14:15:05.666Z,42.60
2023-04-26T14:17:33.344Z,42.60
2023-04-26T14:19:59.907Z,42.80
2023-04-26T14:22:26.497Z,42.30
2023-04-26T14:24:52.988Z,42.50
2023-04-26T14:27:19.483Z,42.80
2023-04-26T14:29:45.977Z,43.20
2023-04-26T14:32:12.506Z,42.50
2023-04-26T14:34:39.124Z,42.60
2023-04-26T14:37:05.679Z,42.70
2023-04-26T14:39:32.198Z,42.80
2023-04-26T14:41:58.644Z,42.70
2023-04-26T14:44:25.104Z,43.00
2023-04-26T14:49:18.767Z,42.90
2023-04-26T14:51:45.204Z,43.20
2023-04-26T14:54:11.716Z,42.60
2023-04-26T14:56:38.233Z,42.50
2023-04-26T14:59:04.729Z,42.40
2023-04-26T15:01:31.300Z,42.50
2023-04-26T15:04:00.287Z,43.10
2023-04-26T15:06:27.630Z,42.80
2023-04-26T15:08:54.119Z,43.10
2023-04-26T15:11:20.594Z,42.80
2023-04-26T15:13:47.158Z,42.50
2023-04-26T15:16:13.689Z,42.50
2023-04-26T15:18:40.219Z,43.10
2023-04-26T15:21:06.773Z,42.40
2023-04-26T15:23:33.267Z,42.70
2023-04-26T15:25:59.809Z,42.60
2023-04-26T15:28:26.267Z,42.50
2023-04-26T15:30:52.747Z,43.20
2023-04-26T15:33:19.536Z,42.60
2023-04-26T15:35:46.348Z,42.70
2023-04-26T15:38:12.857Z,43.10
2023-04-26T15:40:39.337Z,42.70
2023-04-26T15:45:32.857Z,43.10
2023-04-26T15:47:59.383Z,43.10
2023-04-26T15:50:26.110Z,42.90
2023-04-26T15:52:52.575Z,42.70
2023-04-26T15:55:19.063Z,43.20
2023-04-26T15:57:45.560Z,43.10
2023-04-26T16:00:12.052Z,43.10
2023-04-26T16:02:38.739Z,42.90
2023-04-26T16:05:05.637Z,43.10
2023-04-26T16:07:32.276Z,42.80
2023-04-26T16:09:58.732Z,43.20
2023-04-26T16:12:25.246Z,42.60
2023-04-26T16:14:51.726Z,42.60
2023-04-26T16:17:18.203Z,43.10
2023-04-26T16:19:44.747Z,42.60
2023-04-26T16:22:11.228Z,43.20
2023-04-26T16:24:37.730Z,43.00
2023-04-26T16:27:04.217Z,43.20
2023-04-26T16:29:30.678Z,43.10
2023-04-26T16:31:57.204Z,42.60
2023-04-26T16:34:23.803Z,42.20
2023-04-26T16:36:50.432Z,43.50
2023-04-26T16:39:16.936Z,43.30
2023-04-26T16:41:43.424Z,43.10
2023-04-26T16:44:09.942Z,43.00
2023-04-26T16:46:36.516Z,42.80
2023-04-26T16:49:03.214Z,43.30
2023-04-26T16:51:29.677Z,42.50
2023-04-26T16:53:56.205Z,42.70
2023-04-26T16:56:22.739Z,43.20
2023-04-26T17:01:16.295Z,43.10
2023-04-26T17:03:42.850Z,43.10
2023-04-26T17:06:09.545Z,43.00
2023-04-26T17:08:36.022Z,43.20
2023-04-26T17:11:02.790Z,42.70
2023-04-26T17:13:29.458Z,43.10
2023-04-26T17:15:56.046Z,43.10
2023-04-26T17:18:22.597Z,42.70
2023-04-26T17:20:49.091Z,43.20
2023-04-26T17:23:15.568Z,42.50
2023-04-26T17:25:42.041Z,42.70
2023-04-26T17:30:35.592Z,42.50
2023-04-26T17:33:02.146Z,42.60
2023-04-26T17:35:28.628Z,42.60
2023-04-26T17:37:55.110Z,43.10
2023-04-26T17:40:21.569Z,42.80
2023-04-26T17:42:48.044Z,42.60
2023-04-26T17:45:14.866Z,42.90
2023-04-26T17:47:41.606Z,43.00
2023-04-26T17:50:08.169Z,42.60
2023-04-26T17:52:34.688Z,42.90
2023-04-26T17:55:01.202Z,43.00
2023-04-26T17:57:27.653Z,42.00
2023-04-26T17:59:54.147Z,42.80
2023-04-26T18:02:20.716Z,42.90
2023-04-26T18:04:47.626Z,42.60
2023-04-26T18:07:14.344Z,43.00
2023-04-26T18:09:40.839Z,43.30
2023-04-26T18:12:07.302Z,42.60
2023-04-26T18:14:33.884Z,42.70
2023-04-26T18:17:00.370Z,42.60
2023-04-26T18:19:26.915Z,42.50
2023-04-26T18:21:53.417Z,42.60
2023-04-26T18:24:19.910Z,42.70
2023-04-26T18:26:46.407Z,43.20
2023-04-26T18:29:12.903Z,42.50
2023-04-26T18:34:06.552Z,42.80
2023-04-26T18:36:33.049Z,42.60
2023-04-26T18:39:01.019Z,43.10
2023-04-26T18:41:27.787Z,43.00
2023-04-26T18:43:54.291Z,43.20
2023-04-26T18:46:20.815Z,42.90
2023-04-26T18:48:47.356Z,42.90
2023-04-26T18:51:13.869Z,43.00
2023-04-26T18:53:40.348Z,43.20
2023-04-26T18:56:06.849Z,43.10
2023-04-26T18:58:33.325Z,42.50
2023-04-26T19:00:59.820Z,42.90
2023-04-26T19:03:26.530Z,43.20
2023-04-26T19:05:53.387Z,42.70
2023-04-26T19:08:19.876Z,42.90
2023-04-26T19:10:46.362Z,42.80
2023-04-26T19:13:12.862Z,42.50
2023-04-26T19:15:39.410Z,42.50
2023-04-26T19:18:05.942Z,43.00
2023-04-26T19:20:32.463Z,43.30
2023-04-26T19:22:58.955Z,42.80
2023-04-26T19:25:25.430Z,43.00
2023-04-26T19:27:51.944Z,43.10
2023-04-26T19:30:18.514Z,42.60
2023-04-26T19:32:45.125Z,42.80
2023-04-26T19:35:11.643Z,43.10
2023-04-26T19:37:38.190Z,42.60
2023-04-26T19:40:04.708Z,43.10
2023-04-26T19:42:31.280Z,42.60
2023-04-26T19:44:58.321Z,42.60
2023-04-26T19:47:24.810Z,43.10
2023-04-26T19:49:51.291Z,42.60
2023-04-26T19:52:17.792Z,42.60
2023-04-26T19:54:44.352Z,42.30
2023-04-26T19:57:10.894Z,42.40
2023-04-26T19:59:37.408Z,41.70
2023-04-26T20:02:03.924Z,42.70
2023-04-26T20:04:30.498Z,42.50
2023-04-26T20:06:57.078Z,42.40
2023-04-26T20:09:23.525Z,42.30
2023-04-26T20:11:50.046Z,42.30
2023-04-26T20:14:16.548Z,42.40
2023-04-26T20:16:43.148Z,42.70
2023-04-26T20:19:10.054Z,42.40
2023-04-26T20:21:36.800Z,42.60
2023-04-26T20:24:03.295Z,43.10
2023-04-26T20:26:29.779Z,42.80
2023-04-26T20:28:56.260Z,43.00
2023-04-26T20:31:22.828Z,42.90
2023-04-26T20:36:16.440Z,43.10
2023-04-26T20:38:42.903Z,43.30
2023-04-26T20:41:09.403Z,42.40
2023-04-26T20:43:35.917Z,42.70
2023-04-26T20:46:02.413Z,42.90
2023-04-26T20:48:28.900Z,42.60
2023-04-26T20:50:55.374Z,42.60
2023-04-26T20:53:21.834Z,42.50
2023-04-26T20:55:48.324Z,42.20
2023-04-26T20:58:14.807Z,43.00
2023-04-26T21:00:41.295Z,42.50
2023-04-26T21:03:07.925Z,42.20
2023-04-26T21:05:34.595Z,42.30
2023-04-26T21:08:01.098Z,42.80
2023-04-26T21:10:27.558Z,42.50
2023-04-26T21:12:54.003Z,42.10
2023-04-26T21:15:20.642Z,42.40
2023-04-26T21:17:47.164Z,42.40
2023-04-26T21:20:13.693Z,42.90
2023-04-26T21:22:40.166Z,42.40
2023-04-26T21:25:06.621Z,42.90
2023-04-26T21:27:33.098Z,42.80
2023-04-26T21:29:59.618Z,42.90
2023-04-26T21:32:26.117Z,42.30
2023-04-26T21:34:52.634Z,42.40
2023-04-26T21:37:19.109Z,42.60
2023-04-26T21:39:45.565Z,42.10
2023-04-26T21:42:12.096Z,42.70
2023-04-26T21:44:38.582Z,42.90
2023-04-26T21:47:05.147Z,42.30
2023-04-26T21:49:31.654Z,42.40
2023-04-26T21:51:58.172Z,42.40
2023-04-26T21:54:24.655Z,42.90
2023-04-26T21:56:51.136Z,42.40
2023-04-26T21:59:17.643Z,42.60
2023-04-26T22:01:44.201Z,42.50
2023-04-26T22:04:10.855Z,42.50
2023-04-26T22:06:37.492Z,42.50
2023-04-26T22:09:04.015Z,42.40
2023-04-26T22:11:30.506Z,42.70
2023-04-26T22:13:57.001Z,42.60
2023-04-26T22:16:23.486Z,42.90
2023-04-26T22:18:50.031Z,42.40
2023-04-26T22:21:16.492Z,42.20
2023-04-26T22:23:43.012Z,42.80
2023-04-26T22:26:09.502Z,42.30
2023-04-26T22:28:36.012Z,42.80
2023-04-26T22:31:02.539Z,42.30
2023-04-26T22:33:28.988Z,42.60
2023-04-26T22:35:55.454Z,42.70
2023-04-26T22:38:21.938Z,42.40
2023-04-26T22:40:48.421Z,42.00
2023-04-26T22:43:14.884Z,42.30
2023-04-26T22:45:41.428Z,42.00
2023-04-26T22:48:08.106Z,42.20
2023-04-26T22:50:34.686Z,42.10
2023-04-26T22:53:01.165Z,42.20
2023-04-26T22:55:27.696Z,41.90
2023-04-26T22:57:54.208Z,42.60
2023-04-26T23:00:20.717Z,42.10
2023-04-26T23:02:47.322Z,42.10
2023-04-26T23:05:13.828Z,41.70
2023-04-26T23:07:40.294Z,42.50
2023-04-26T23:10:06.800Z,41.90
2023-04-26T23:12:33.293Z,42.10
2023-04-26T23:14:59.781Z,42.10
2023-04-26T23:17:26.324Z,42.50
2023-04-26T23:19:52.806Z,42.00
2023-04-26T23:22:19.301Z,41.90
2023-04-26T23:24:45.815Z,41.90
2023-04-26T23:27:12.339Z,41.90
2023-04-26T23:29:38.851Z,42.40
2023-04-26T23:32:05.310Z,42.20
2023-04-26T23:34:31.847Z,42.30
2023-04-26T23:36:58.308Z,42.00
2023-04-26T23:39:33.362Z,41.60
2023-04-26T23:41:59.846Z,42.10
2023-04-26T23:44:26.311Z,41.80
2023-04-26T23:46:52.928Z,42.50
2023-04-26T23:49:19.516Z,42.10
2023-04-26T23:51:45.996Z,41.90
2023-04-26T23:54:12.451Z,41.90
2023-04-26T23:56:38.929Z,43.00
2023-04-26T23:59:05.385Z,42.00
